createdAt,value
2023-02-02T00:04:35.292Z,101605.13
2023-02-02T00:09:37.095Z,101613.06
2023-02-02T00:14:39.311Z,101607.75
2023-02-02T00:19:41.384Z,101614.06
2023-02-02T00:24:43.434Z,101603.56
2023-02-02T00:29:45.827Z,101600.75
2023-02-02T00:34:47.619Z,101596.22
2023-02-02T00:39:49.751Z,101597.16
2023-02-02T00:45:10.517Z,101600.75
2023-02-02T00:50:15.924Z,101603.38
2023-02-02T00:55:18.008Z,101601.56
2023-02-02T01:00:25.737Z,101599.75
2023-02-02T01:05:27.774Z,101610.41
2023-02-02T01:10:29.795Z,101611.34
2023-02-02T01:15:31.686Z,101597.31
2023-02-02T01:20:34.047Z,101594.63
2023-02-02T01:25:38.929Z,101607.03
2023-02-02T01:30:40.980Z,101608.66
2023-02-02T01:35:53.926Z,101615.69
2023-02-02T01:40:57.280Z,101614.00
2023-02-02T01:45:59.664Z,101614.88
2023-02-02T01:51:09.599Z,101621.91
2023-02-02T01:56:15.455Z,101620.13
2023-02-02T02:01:17.686Z,101621.09
2023-02-02T02:06:20.440Z,101615.66
2023-02-02T02:11:23.608Z,101606.91
2023-02-02T02:16:44.007Z,101604.22
2023-02-02T02:22:37.216Z,101599.88
2023-02-02T02:28:01.111Z,101597.16
2023-02-02T02:33:44.691Z,101601.59
2023-02-02T02:38:57.262Z,101601.56
2023-02-02T02:44:07.935Z,101602.47
2023-02-02T02:49:12.275Z,101599.91
2023-02-02T02:54:17.044Z,101601.50
2023-02-02T02:59:54.364Z,101610.53
2023-02-02T03:05:13.648Z,101617.41
2023-02-02T03:10:20.071Z,101619.25
2023-02-02T03:15:22.609Z,101621.84
2023-02-02T03:20:24.962Z,101617.50
2023-02-02T03:25:27.282Z,101621.09
2023-02-02T03:30:29.302Z,101616.63
2023-02-02T03:35:31.336Z,101621.00
2023-02-02T03:40:33.177Z,101617.50
2023-02-02T03:45:41.113Z,101627.28
2023-02-02T03:50:43.232Z,101623.66
2023-02-02T03:55:45.050Z,101624.63
2023-02-02T04:00:46.890Z,101622.69
2023-02-02T04:05:51.703Z,101636.06
2023-02-02T04:10:53.719Z,101643.00
2023-02-02T04:16:00.582Z,101637.75
2023-02-02T04:21:02.637Z,101619.19
2023-02-02T04:26:05.140Z,101635.16
2023-02-02T04:31:07.200Z,101641.31
2023-02-02T04:36:09.556Z,101648.44
2023-02-02T04:41:14.801Z,101655.38
2023-02-02T04:46:17.130Z,101658.94
2023-02-02T04:51:19.126Z,101658.94
2023-02-02T04:56:21.562Z,101662.50
2023-02-02T05:01:23.699Z,101680.13
2023-02-02T05:06:25.871Z,101677.44
2023-02-02T05:11:27.790Z,101680.13
2023-02-02T05:16:29.863Z,101671.44
2023-02-02T05:21:31.746Z,101669.59
2023-02-02T05:26:33.872Z,101666.97
2023-02-02T05:31:36.087Z,101656.25
2023-02-02T05:36:38.201Z,101651.94
2023-02-02T05:41:40.122Z,101655.38
2023-02-02T05:46:41.957Z,101665.75
2023-02-02T05:51:48.695Z,101667.88
2023-02-02T05:56:53.605Z,101667.97
2023-02-02T06:01:55.613Z,101662.66
2023-02-02T06:06:57.807Z,101666.16
2023-02-02T06:11:59.621Z,101670.63
2023-02-02T06:17:01.543Z,101677.72
2023-02-02T06:22:04.052Z,101683.03
2023-02-02T06:27:06.021Z,101682.19
2023-02-02T06:32:08.186Z,101682.19
2023-02-02T06:37:10.254Z,101697.06
2023-02-02T06:42:21.407Z,101696.28
2023-02-02T06:47:25.381Z,101709.53
2023-02-02T06:52:28.663Z,101700.56
2023-02-02T06:57:30.878Z,101704.13
2023-02-02T07:02:32.917Z,101700.63
2023-02-02T07:07:35.453Z,101697.97
2023-02-02T07:12:37.492Z,101699.81
2023-02-02T07:17:39.747Z,101716.47
2023-02-02T07:22:42.020Z,101718.31
2023-02-02T07:27:43.874Z,101724.59
2023-02-02T07:32:50.147Z,101722.78
2023-02-02T07:37:54.298Z,101727.97
2023-02-02T07:42:56.648Z,101727.22
2023-02-02T07:48:00.015Z,101726.25
2023-02-02T07:53:01.912Z,101722.78
2023-02-02T07:58:03.864Z,101721.81
2023-02-02T08:03:05.854Z,101722.66
2023-02-02T08:08:07.877Z,101731.44
2023-02-02T08:13:09.620Z,101741.19
2023-02-02T08:18:11.721Z,101744.66
2023-02-02T08:23:16.355Z,101744.69
2023-02-02T08:28:18.944Z,101759.75
2023-02-02T08:33:20.771Z,101764.16
2023-02-02T08:38:24.138Z,101780.06
2023-02-02T08:43:25.963Z,101781.75
2023-02-02T08:48:27.988Z,101786.09
2023-02-02T08:53:30.645Z,101789.75
2023-02-02T08:58:34.007Z,101783.59
2023-02-02T09:03:36.161Z,101796.03
2023-02-02T09:08:38.561Z,101796.84
2023-02-02T09:13:42.203Z,101807.44
2023-02-02T09:18:45.152Z,101836.59
2023-02-02T09:23:48.437Z,101834.94
2023-02-02T09:29:11.466Z,101852.50
2023-02-02T09:34:15.578Z,101855.09
2023-02-02T09:39:24.926Z,101860.34
2023-02-02T09:44:53.846Z,101863.91
2023-02-02T09:50:06.080Z,101875.34
2023-02-02T09:55:16.715Z,101877.03
2023-02-02T10:00:35.110Z,101882.44
2023-02-02T10:05:49.119Z,101900.16
2023-02-02T10:10:51.764Z,101901.97
2023-02-02T10:16:21.847Z,101899.34
2023-02-02T10:21:29.529Z,101916.06
2023-02-02T10:26:40.284Z,101918.69
2023-02-02T10:31:44.588Z,101924.09
2023-02-02T10:36:55.741Z,101922.28
2023-02-02T10:42:16.599Z,101922.22
2023-02-02T10:47:29.541Z,101925.84
2023-02-02T10:52:35.332Z,101927.50
2023-02-02T10:57:51.213Z,101919.56
2023-02-02T11:02:53.914Z,101909.94
2023-02-02T11:07:56.025Z,101920.47
2023-02-02T11:13:01.924Z,101925.75
2023-02-02T11:18:34.597Z,101926.66
2023-02-02T11:23:37.508Z,101939.03
2023-02-02T11:28:39.457Z,101930.25
2023-02-02T11:33:45.624Z,101916.97
2023-02-02T11:38:47.586Z,101927.50
2023-02-02T11:43:52.980Z,101919.56
2023-02-02T11:49:02.702Z,101923.97
2023-02-02T11:54:07.712Z,101913.41
2023-02-02T11:59:27.988Z,101905.53
2023-02-02T12:04:32.256Z,101897.47
2023-02-02T12:09:34.559Z,101893.13
2023-02-02T12:14:55.273Z,101888.59
2023-02-02T12:20:38.660Z,101880.75
2023-02-02T12:25:49.617Z,101879.81
2023-02-02T12:31:05.489Z,101873.66
2023-02-02T12:36:10.079Z,101874.50
2023-02-02T12:42:06.705Z,101883.44
2023-02-02T12:47:19.026Z,101882.41
2023-02-02T12:53:04.916Z,101869.28
2023-02-02T12:58:10.294Z,101863.91
2023-02-02T13:03:28.235Z,101853.31
2023-02-02T13:08:41.848Z,101863.03
2023-02-02T13:13:44.209Z,101864.75
2023-02-02T13:19:12.442Z,101867.38
2023-02-02T13:24:25.241Z,101867.38
2023-02-02T13:29:39.037Z,101875.41
2023-02-02T13:35:07.327Z,101873.63
2023-02-02T13:40:24.582Z,101866.53
2023-02-02T13:45:45.351Z,101858.59
2023-02-02T13:50:59.344Z,101845.38
2023-02-02T13:56:34.072Z,101855.13
2023-02-02T14:01:36.742Z,101849.78
2023-02-02T14:07:13.596Z,101855.13
2023-02-02T14:12:22.448Z,101857.72
2023-02-02T14:17:24.327Z,101856.88
2023-02-02T14:22:42.755Z,101860.44
2023-02-02T14:27:57.453Z,101853.31
2023-02-02T14:33:21.445Z,101851.66
2023-02-02T14:38:53.859Z,101848.13
2023-02-02T14:43:55.846Z,101844.50
2023-02-02T14:48:57.675Z,101861.34
2023-02-02T14:54:02.810Z,101871.97
2023-02-02T14:59:05.922Z,101870.16
2023-02-02T15:04:24.239Z,101890.75
2023-02-02T15:09:27.609Z,101891.44
2023-02-02T15:15:08.471Z,101901.16
2023-02-02T15:20:29.565Z,101892.34
2023-02-02T15:25:43.881Z,101889.59
2023-02-02T15:30:51.611Z,101892.66
2023-02-02T15:35:55.082Z,101895.97
2023-02-02T15:40:57.374Z,101894.34
2023-02-02T15:46:10.986Z,101909.97
2023-02-02T15:51:17.785Z,101915.25
2023-02-02T15:56:25.629Z,101922.88
2023-02-02T16:01:33.040Z,101922.03
2023-02-02T16:06:35.396Z,101936.19
2023-02-02T16:11:42.448Z,101949.38
2023-02-02T16:16:47.237Z,101941.41
2023-02-02T16:22:16.484Z,101956.38
2023-02-02T16:27:22.421Z,101958.22
2023-02-02T16:32:33.369Z,101958.16
2023-02-02T16:37:36.649Z,101967.91
2023-02-02T16:42:38.822Z,101970.56
2023-02-02T16:47:40.975Z,101971.44
2023-02-02T16:52:59.921Z,101970.59
2023-02-02T16:58:02.442Z,101982.91
2023-02-02T17:03:11.557Z,101987.31
2023-02-02T17:08:14.232Z,101993.50
2023-02-02T17:13:31.585Z,102001.44
2023-02-02T17:18:33.512Z,101997.00
2023-02-02T17:23:36.891Z,102000.56
2023-02-02T17:28:40.697Z,102004.09
2023-02-02T17:33:43.842Z,102012.06
2023-02-02T17:38:45.801Z,102003.25
2023-02-02T17:43:48.122Z,101999.72
2023-02-02T17:48:50.160Z,102010.25
2023-02-02T17:53:52.498Z,102021.78
2023-02-02T17:58:54.666Z,102027.94
2023-02-02T18:03:56.926Z,102024.44
2023-02-02T18:08:59.084Z,102032.41
2023-02-02T18:14:01.286Z,102031.50
2023-02-02T18:19:04.748Z,102026.22
2023-02-02T18:24:06.654Z,102022.63
2023-02-02T18:29:08.905Z,102025.31
2023-02-02T18:34:10.840Z,102038.50
2023-02-02T18:39:12.795Z,102026.22
2023-02-02T18:44:14.990Z,102029.63
2023-02-02T18:49:17.380Z,102022.66
2023-02-02T18:54:19.255Z,102021.69
2023-02-02T18:59:21.130Z,102015.63
2023-02-02T19:04:23.155Z,102008.56
2023-02-02T19:09:25.491Z,102024.44
2023-02-02T19:14:37.129Z,102031.50
2023-02-02T19:19:40.508Z,102027.97
2023-02-02T19:24:42.528Z,102026.16
2023-02-02T19:29:46.218Z,102027.13
2023-02-02T19:34:48.971Z,102027.09
2023-02-02T19:39:54.248Z,102033.25
2023-02-02T19:44:57.177Z,102034.19
2023-02-02T19:50:12.452Z,102039.47
2023-02-02T19:55:22.441Z,102045.63
2023-02-02T20:00:27.913Z,102035.06
2023-02-02T20:05:46.654Z,102033.34
2023-02-02T20:10:48.659Z,102019.09
2023-02-02T20:16:03.619Z,102025.28
2023-02-02T20:21:09.917Z,102012.97
2023-02-02T20:26:18.080Z,102020.06
2023-02-02T20:31:24.458Z,102021.78
2023-02-02T20:36:28.458Z,102012.03
2023-02-02T20:41:30.381Z,102024.41
2023-02-02T20:46:32.278Z,102012.13
2023-02-02T20:51:34.217Z,102009.50
2023-02-02T20:56:36.627Z,102010.31
2023-02-02T21:01:38.917Z,102017.38
2023-02-02T21:06:41.012Z,102018.19
2023-02-02T21:11:43.706Z,102030.63
2023-02-02T21:16:45.493Z,102020.00
2023-02-02T21:21:47.570Z,102051.75
2023-02-02T21:26:52.151Z,102065.03
2023-02-02T21:31:59.011Z,102073.91
2023-02-02T21:37:00.952Z,102082.75
2023-02-02T21:42:08.559Z,102080.94
2023-02-02T21:47:34.086Z,102068.41
2023-02-02T21:52:35.950Z,102053.25
2023-02-02T21:57:37.896Z,102057.06
2023-02-02T22:02:44.488Z,102069.47
2023-02-02T22:07:49.778Z,102066.00
2023-02-02T22:12:51.717Z,102066.00
2023-02-02T22:17:53.580Z,102060.66
2023-02-02T22:22:55.670Z,102057.13
2023-02-02T22:28:01.748Z,102056.28
2023-02-02T22:33:08.510Z,102050.09
2023-02-02T22:38:15.760Z,102052.72
2023-02-02T22:43:19.269Z,102065.91
2023-02-02T22:48:21.580Z,102063.22
2023-02-02T22:53:24.126Z,102064.16
2023-02-02T22:58:26.164Z,102064.09
2023-02-02T23:03:28.379Z,102072.97
2023-02-02T23:08:30.328Z,102063.31
2023-02-02T23:13:32.193Z,102058.78
2023-02-02T23:18:34.548Z,102061.50
2023-02-02T23:23:36.527Z,102058.88
2023-02-02T23:28:38.573Z,102063.34
2023-02-02T23:33:40.531Z,102067.66
2023-02-02T23:38:42.757Z,102057.16
2023-02-02T23:43:44.701Z,102047.41
2023-02-02T23:48:47.711Z,102028.84
2023-02-02T23:53:50.030Z,102017.34
2023-02-02T23:58:52.338Z,102012.13
